sensor_id;sensor_type;location;lat;lon;timestamp;P1;durP1;ratioP1;P2;durP2;ratioP2
37823;SDS011;23667;43.246;26.576;2022-09-21T00:00:36;0.77;;;0.20;;
37823;SDS011;23667;43.246;26.576;2022-09-21T00:03:02;0.68;;;0.20;;
37823;SDS011;23667;43.246;26.576;2022-09-21T00:05:28;0.45;;;0.25;;
37823;SDS011;23667;43.246;26.576;2022-09-21T00:07:53;0.32;;;0.20;;
37823;SDS011;23667;43.246;26.576;2022-09-21T00:10:19;1.52;;;0.20;;
37823;SDS011;23667;43.246;26.576;2022-09-21T00:12:46;2.38;;;0.30;;
37823;SDS011;23667;43.246;26.576;2022-09-21T00:15:12;1.67;;;0.20;;
37823;SDS011;23667;43.246;26.576;2022-09-21T00:17:39;1.73;;;0.35;;
37823;SDS011;23667;43.246;26.576;2022-09-21T00:20:05;1.88;;;0.40;;
37823;SDS011;23667;43.246;26.576;2022-09-21T00:22:31;1.10;;;0.30;;
37823;SDS011;23667;43.246;26.576;2022-09-21T00:24:57;3.25;;;0.40;;
37823;SDS011;23667;43.246;26.576;2022-09-21T00:27:23;1.58;;;0.30;;
37823;SDS011;23667;43.246;26.576;2022-09-21T00:29:57;1.20;;;0.30;;
37823;SDS011;23667;43.246;26.576;2022-09-21T00:32:25;0.93;;;0.40;;
37823;SDS011;23667;43.246;26.576;2022-09-21T00:34:51;1.88;;;0.50;;
37823;SDS011;23667;43.246;26.576;2022-09-21T00:37:20;2.35;;;0.40;;
37823;SDS011;23667;43.246;26.576;2022-09-21T00:39:45;1.45;;;0.30;;
37823;SDS011;23667;43.246;26.576;2022-09-21T00:42:21;0.90;;;0.30;;
37823;SDS011;23667;43.246;26.576;2022-09-21T00:44:48;1.00;;;0.40;;
37823;SDS011;23667;43.246;26.576;2022-09-21T00:47:29;2.20;;;0.55;;
37823;SDS011;23667;43.246;26.576;2022-09-21T00:50:01;3.28;;;0.30;;
37823;SDS011;23667;43.246;26.576;2022-09-21T00:52:31;1.88;;;0.35;;
37823;SDS011;23667;43.246;26.576;2022-09-21T00:55:05;2.00;;;0.40;;
37823;SDS011;23667;43.246;26.576;2022-09-21T00:57:35;3.35;;;0.52;;
37823;SDS011;23667;43.246;26.576;2022-09-21T01:00:04;1.50;;;0.40;;
37823;SDS011;23667;43.246;26.576;2022-09-21T01:02:33;3.00;;;0.40;;
37823;SDS011;23667;43.246;26.576;2022-09-21T01:04:59;0.68;;;0.30;;
37823;SDS011;23667;43.246;26.576;2022-09-21T01:07:26;1.00;;;0.30;;
37823;SDS011;23667;43.246;26.576;2022-09-21T01:09:56;0.60;;;0.30;;
37823;SDS011;23667;43.246;26.576;2022-09-21T01:12:36;1.85;;;0.50;;
37823;SDS011;23667;43.246;26.576;2022-09-21T01:21:04;0.60;;;0.30;;
37823;SDS011;23667;43.246;26.576;2022-09-21T01:31:55;1.95;;;0.40;;
37823;SDS011;23667;43.246;26.576;2022-09-21T01:34:32;4.78;;;0.50;;
37823;SDS011;23667;43.246;26.576;2022-09-21T01:37:03;1.42;;;0.40;;
37823;SDS011;23667;43.246;26.576;2022-09-21T01:39:34;1.05;;;0.40;;
37823;SDS011;23667;43.246;26.576;2022-09-21T01:42:03;1.77;;;0.50;;
37823;SDS011;23667;43.246;26.576;2022-09-21T01:44:31;1.75;;;0.50;;
37823;SDS011;23667;43.246;26.576;2022-09-21T01:47:00;1.45;;;0.45;;
37823;SDS011;23667;43.246;26.576;2022-09-21T01:49:32;1.02;;;0.40;;
37823;SDS011;23667;43.246;26.576;2022-09-21T01:52:07;1.00;;;0.40;;
37823;SDS011;23667;43.246;26.576;2022-09-21T01:54:44;2.33;;;0.40;;
37823;SDS011;23667;43.246;26.576;2022-09-21T01:57:30;1.58;;;0.32;;
37823;SDS011;23667;43.246;26.576;2022-09-21T02:00:04;5.88;;;0.52;;
37823;SDS011;23667;43.246;26.576;2022-09-21T02:02:34;0.47;;;0.30;;
37823;SDS011;23667;43.246;26.576;2022-09-21T02:05:04;1.60;;;0.52;;
37823;SDS011;23667;43.246;26.576;2022-09-21T02:07:32;6.00;;;0.50;;
37823;SDS011;23667;43.246;26.576;2022-09-21T02:09:59;1.45;;;0.40;;
37823;SDS011;23667;43.246;26.576;2022-09-21T02:12:26;5.55;;;0.50;;
37823;SDS011;23667;43.246;26.576;2022-09-21T02:14:51;1.45;;;0.50;;
37823;SDS011;23667;43.246;26.576;2022-09-21T02:22:56;0.90;;;0.40;;
37823;SDS011;23667;43.246;26.576;2022-09-21T02:31:09;0.88;;;0.47;;
37823;SDS011;23667;43.246;26.576;2022-09-21T02:33:55;0.77;;;0.30;;
37823;SDS011;23667;43.246;26.576;2022-09-21T02:42:18;2.03;;;0.43;;
37823;SDS011;23667;43.246;26.576;2022-09-21T02:45:10;3.80;;;0.75;;
37823;SDS011;23667;43.246;26.576;2022-09-21T02:48:17;4.57;;;0.73;;
37823;SDS011;23667;43.246;26.576;2022-09-21T02:50:47;1.63;;;0.60;;
37823;SDS011;23667;43.246;26.576;2022-09-21T02:53:22;3.28;;;0.50;;
37823;SDS011;23667;43.246;26.576;2022-09-21T02:55:50;2.50;;;0.43;;
37823;SDS011;23667;43.246;26.576;2022-09-21T02:58:18;1.35;;;0.40;;
37823;SDS011;23667;43.246;26.576;2022-09-21T03:00:46;3.60;;;0.60;;
37823;SDS011;23667;43.246;26.576;2022-09-21T03:05:42;1.38;;;0.40;;
37823;SDS011;23667;43.246;26.576;2022-09-21T03:08:09;1.20;;;0.57;;
37823;SDS011;23667;43.246;26.576;2022-09-21T03:10:35;2.85;;;0.52;;
37823;SDS011;23667;43.246;26.576;2022-09-21T03:13:04;3.42;;;0.63;;
37823;SDS011;23667;43.246;26.576;2022-09-21T03:15:33;1.55;;;0.50;;
37823;SDS011;23667;43.246;26.576;2022-09-21T03:18:02;1.10;;;0.50;;
37823;SDS011;23667;43.246;26.576;2022-09-21T03:20:34;1.13;;;0.40;;
37823;SDS011;23667;43.246;26.576;2022-09-21T03:23:00;2.50;;;0.60;;
37823;SDS011;23667;43.246;26.576;2022-09-21T03:25:27;1.40;;;0.40;;
37823;SDS011;23667;43.246;26.576;2022-09-21T03:27:54;1.98;;;0.50;;
37823;SDS011;23667;43.246;26.576;2022-09-21T03:30:23;0.85;;;0.40;;
37823;SDS011;23667;43.246;26.576;2022-09-21T03:32:50;0.95;;;0.40;;
37823;SDS011;23667;43.246;26.576;2022-09-21T03:35:17;1.40;;;0.60;;
37823;SDS011;23667;43.246;26.576;2022-09-21T03:37:44;1.17;;;0.45;;
37823;SDS011;23667;43.246;26.576;2022-09-21T03:40:12;1.58;;;0.40;;
37823;SDS011;23667;43.246;26.576;2022-09-21T03:42:39;7.38;;;0.50;;
37823;SDS011;23667;43.246;26.576;2022-09-21T03:45:05;1.77;;;0.85;;
37823;SDS011;23667;43.246;26.576;2022-09-21T03:47:31;2.28;;;0.68;;
37823;SDS011;23667;43.246;26.576;2022-09-21T03:49:57;1.80;;;0.50;;
37823;SDS011;23667;43.246;26.576;2022-09-21T03:52:22;0.98;;;0.40;;
37823;SDS011;23667;43.246;26.576;2022-09-21T03:54:48;3.22;;;0.65;;
37823;SDS011;23667;43.246;26.576;2022-09-21T03:57:13;3.47;;;0.50;;
37823;SDS011;23667;43.246;26.576;2022-09-21T03:59:39;1.52;;;0.60;;
37823;SDS011;23667;43.246;26.576;2022-09-21T04:02:04;1.70;;;0.50;;
37823;SDS011;23667;43.246;26.576;2022-09-21T04:04:30;1.25;;;0.40;;
37823;SDS011;23667;43.246;26.576;2022-09-21T04:06:57;1.13;;;0.50;;
37823;SDS011;23667;43.246;26.576;2022-09-21T04:09:23;1.45;;;0.50;;
37823;SDS011;23667;43.246;26.576;2022-09-21T04:11:49;1.27;;;0.40;;
37823;SDS011;23667;43.246;26.576;2022-09-21T04:14:16;5.60;;;0.68;;
37823;SDS011;23667;43.246;26.576;2022-09-21T04:16:42;3.20;;;0.65;;
37823;SDS011;23667;43.246;26.576;2022-09-21T04:19:07;1.35;;;0.70;;
37823;SDS011;23667;43.246;26.576;2022-09-21T04:21:33;5.10;;;0.60;;
37823;SDS011;23667;43.246;26.576;2022-09-21T04:23:58;2.92;;;0.68;;
37823;SDS011;23667;43.246;26.576;2022-09-21T04:26:29;7.07;;;0.40;;
37823;SDS011;23667;43.246;26.576;2022-09-21T04:28:58;4.68;;;0.70;;
37823;SDS011;23667;43.246;26.576;2022-09-21T04:31:24;1.92;;;0.50;;
37823;SDS011;23667;43.246;26.576;2022-09-21T04:33:51;7.38;;;1.10;;
37823;SDS011;23667;43.246;26.576;2022-09-21T04:36:18;2.53;;;0.80;;
37823;SDS011;23667;43.246;26.576;2022-09-21T04:38:45;3.33;;;0.80;;
37823;SDS011;23667;43.246;26.576;2022-09-21T04:41:11;7.18;;;0.60;;
37823;SDS011;23667;43.246;26.576;2022-09-21T04:43:37;6.50;;;0.90;;
37823;SDS011;23667;43.246;26.576;2022-09-21T04:46:07;2.65;;;0.85;;
37823;SDS011;23667;43.246;26.576;2022-09-21T04:48:33;6.00;;;0.52;;
37823;SDS011;23667;43.246;26.576;2022-09-21T04:50:59;4.07;;;0.60;;
37823;SDS011;23667;43.246;26.576;2022-09-21T04:53:25;4.22;;;0.70;;
37823;SDS011;23667;43.246;26.576;2022-09-21T04:55:51;5.10;;;1.92;;
37823;SDS011;23667;43.246;26.576;2022-09-21T04:58:16;5.50;;;0.68;;
37823;SDS011;23667;43.246;26.576;2022-09-21T05:00:42;3.75;;;0.60;;
37823;SDS011;23667;43.246;26.576;2022-09-21T05:03:08;4.30;;;0.50;;
37823;SDS011;23667;43.246;26.576;2022-09-21T05:05:33;3.90;;;1.15;;
37823;SDS011;23667;43.246;26.576;2022-09-21T05:07:59;6.32;;;0.93;;
37823;SDS011;23667;43.246;26.576;2022-09-21T05:10:24;5.70;;;0.32;;
37823;SDS011;23667;43.246;26.576;2022-09-21T05:12:50;13.43;;;1.27;;
37823;SDS011;23667;43.246;26.576;2022-09-21T05:15:16;12.65;;;0.40;;
37823;SDS011;23667;43.246;26.576;2022-09-21T05:17:42;1.77;;;0.63;;
37823;SDS011;23667;43.246;26.576;2022-09-21T05:20:08;3.10;;;1.05;;
37823;SDS011;23667;43.246;26.576;2022-09-21T05:22:35;9.88;;;0.45;;
37823;SDS011;23667;43.246;26.576;2022-09-21T05:25:01;2.63;;;0.45;;
37823;SDS011;23667;43.246;26.576;2022-09-21T05:27:26;2.05;;;0.50;;
37823;SDS011;23667;43.246;26.576;2022-09-21T05:29:51;2.72;;;0.52;;
37823;SDS011;23667;43.246;26.576;2022-09-21T05:42:42;4.45;;;0.65;;
37823;SDS011;23667;43.246;26.576;2022-09-21T05:45:11;4.65;;;0.70;;
37823;SDS011;23667;43.246;26.576;2022-09-21T05:50:20;8.40;;;1.52;;
37823;SDS011;23667;43.246;26.576;2022-09-21T05:52:55;7.18;;;1.00;;
37823;SDS011;23667;43.246;26.576;2022-09-21T05:55:32;9.95;;;1.05;;
37823;SDS011;23667;43.246;26.576;2022-09-21T06:03:45;3.15;;;0.20;;
37823;SDS011;23667;43.246;26.576;2022-09-21T06:06:13;2.80;;;0.40;;
37823;SDS011;23667;43.246;26.576;2022-09-21T06:08:39;7.38;;;0.40;;
37823;SDS011;23667;43.246;26.576;2022-09-21T06:11:05;0.90;;;0.25;;
37823;SDS011;23667;43.246;26.576;2022-09-21T06:13:30;0.70;;;0.20;;
37823;SDS011;23667;43.246;26.576;2022-09-21T06:15:56;1.35;;;0.50;;
37823;SDS011;23667;43.246;26.576;2022-09-21T06:18:22;3.35;;;0.32;;
37823;SDS011;23667;43.246;26.576;2022-09-21T06:20:48;3.53;;;0.22;;
37823;SDS011;23667;43.246;26.576;2022-09-21T06:23:13;4.50;;;0.32;;
37823;SDS011;23667;43.246;26.576;2022-09-21T06:25:39;1.25;;;0.20;;
37823;SDS011;23667;43.246;26.576;2022-09-21T06:28:08;0.63;;;0.20;;
37823;SDS011;23667;43.246;26.576;2022-09-21T06:30:36;0.63;;;0.20;;
37823;SDS011;23667;43.246;26.576;2022-09-21T06:33:03;1.63;;;0.55;;
37823;SDS011;23667;43.246;26.576;2022-09-21T06:35:31;2.25;;;0.20;;
37823;SDS011;23667;43.246;26.576;2022-09-21T06:38:03;4.10;;;1.58;;
37823;SDS011;23667;43.246;26.576;2022-09-21T06:40:31;3.15;;;0.60;;
37823;SDS011;23667;43.246;26.576;2022-09-21T06:42:58;0.88;;;0.30;;
37823;SDS011;23667;43.246;26.576;2022-09-21T06:45:24;1.65;;;0.30;;
37823;SDS011;23667;43.246;26.576;2022-09-21T06:47:51;1.95;;;0.38;;
37823;SDS011;23667;43.246;26.576;2022-09-21T06:50:16;2.05;;;0.30;;
37823;SDS011;23667;43.246;26.576;2022-09-21T06:52:42;1.40;;;0.40;;
37823;SDS011;23667;43.246;26.576;2022-09-21T06:55:07;1.60;;;0.25;;
37823;SDS011;23667;43.246;26.576;2022-09-21T06:57:34;1.42;;;0.20;;
37823;SDS011;23667;43.246;26.576;2022-09-21T07:00:02;3.67;;;0.40;;
37823;SDS011;23667;43.246;26.576;2022-09-21T07:02:28;3.60;;;0.30;;
37823;SDS011;23667;43.246;26.576;2022-09-21T07:04:54;2.80;;;0.30;;
37823;SDS011;23667;43.246;26.576;2022-09-21T07:07:19;3.97;;;0.57;;
37823;SDS011;23667;43.246;26.576;2022-09-21T07:09:45;2.80;;;0.20;;
37823;SDS011;23667;43.246;26.576;2022-09-21T07:12:10;1.02;;;0.25;;
37823;SDS011;23667;43.246;26.576;2022-09-21T07:14:36;1.38;;;0.30;;
37823;SDS011;23667;43.246;26.576;2022-09-21T07:17:01;2.95;;;0.25;;
37823;SDS011;23667;43.246;26.576;2022-09-21T07:19:26;3.58;;;0.40;;
37823;SDS011;23667;43.246;26.576;2022-09-21T07:21:53;1.73;;;0.20;;
37823;SDS011;23667;43.246;26.576;2022-09-21T07:24:19;2.08;;;0.70;;
37823;SDS011;23667;43.246;26.576;2022-09-21T07:26:44;1.67;;;0.10;;
37823;SDS011;23667;43.246;26.576;2022-09-21T07:29:10;1.05;;;0.15;;
37823;SDS011;23667;43.246;26.576;2022-09-21T07:31:36;0.63;;;0.10;;
37823;SDS011;23667;43.246;26.576;2022-09-21T07:34:01;1.73;;;0.20;;
37823;SDS011;23667;43.246;26.576;2022-09-21T07:36:27;0.60;;;0.30;;
37823;SDS011;23667;43.246;26.576;2022-09-21T07:38:53;0.90;;;0.22;;
37823;SDS011;23667;43.246;26.576;2022-09-21T07:41:18;1.70;;;0.22;;
37823;SDS011;23667;43.246;26.576;2022-09-21T07:43:44;1.48;;;0.20;;
37823;SDS011;23667;43.246;26.576;2022-09-21T07:46:10;0.30;;;0.10;;
37823;SDS011;23667;43.246;26.576;2022-09-21T07:48:37;0.60;;;0.10;;
37823;SDS011;23667;43.246;26.576;2022-09-21T07:51:07;1.05;;;0.20;;
37823;SDS011;23667;43.246;26.576;2022-09-21T07:53:35;0.93;;;0.20;;
37823;SDS011;23667;43.246;26.576;2022-09-21T07:56:08;0.80;;;0.20;;
37823;SDS011;23667;43.246;26.576;2022-09-21T07:58:36;2.90;;;0.30;;
37823;SDS011;23667;43.246;26.576;2022-09-21T08:01:21;1.73;;;0.13;;
37823;SDS011;23667;43.246;26.576;2022-09-21T08:03:50;3.88;;;0.30;;
37823;SDS011;23667;43.246;26.576;2022-09-21T08:06:17;3.75;;;0.30;;
37823;SDS011;23667;43.246;26.576;2022-09-21T08:08:43;0.75;;;0.20;;
37823;SDS011;23667;43.246;26.576;2022-09-21T08:11:12;1.00;;;0.30;;
37823;SDS011;23667;43.246;26.576;2022-09-21T08:13:42;0.70;;;0.30;;
37823;SDS011;23667;43.246;26.576;2022-09-21T08:16:08;2.38;;;0.50;;
37823;SDS011;23667;43.246;26.576;2022-09-21T08:18:37;1.00;;;0.40;;
37823;SDS011;23667;43.246;26.576;2022-09-21T08:21:04;2.70;;;0.20;;
37823;SDS011;23667;43.246;26.576;2022-09-21T08:23:30;3.90;;;0.40;;
37823;SDS011;23667;43.246;26.576;2022-09-21T08:25:59;3.45;;;0.50;;
37823;SDS011;23667;43.246;26.576;2022-09-21T08:28:28;1.10;;;0.30;;
37823;SDS011;23667;43.246;26.576;2022-09-21T08:31:00;2.63;;;0.20;;
37823;SDS011;23667;43.246;26.576;2022-09-21T08:33:30;1.47;;;0.50;;
37823;SDS011;23667;43.246;26.576;2022-09-21T08:35:57;0.82;;;0.20;;
37823;SDS011;23667;43.246;26.576;2022-09-21T08:38:24;1.42;;;0.25;;
37823;SDS011;23667;43.246;26.576;2022-09-21T08:40:50;3.85;;;0.40;;
37823;SDS011;23667;43.246;26.576;2022-09-21T08:43:18;2.30;;;0.20;;
37823;SDS011;23667;43.246;26.576;2022-09-21T08:45:45;1.08;;;0.30;;
37823;SDS011;23667;43.246;26.576;2022-09-21T08:50:51;2.70;;;0.28;;
37823;SDS011;23667;43.246;26.576;2022-09-21T08:53:21;2.00;;;0.38;;
37823;SDS011;23667;43.246;26.576;2022-09-21T08:55:57;0.40;;;0.20;;
37823;SDS011;23667;43.246;26.576;2022-09-21T08:58:23;1.35;;;0.20;;
37823;SDS011;23667;43.246;26.576;2022-09-21T09:00:55;1.05;;;0.20;;
37823;SDS011;23667;43.246;26.576;2022-09-21T09:22:26;3.85;;;0.20;;
37823;SDS011;23667;43.246;26.576;2022-09-21T09:25:20;0.60;;;0.20;;
37823;SDS011;23667;43.246;26.576;2022-09-21T09:27:56;1.23;;;0.20;;
37823;SDS011;23667;43.246;26.576;2022-09-21T09:30:26;1.38;;;0.20;;
37823;SDS011;23667;43.246;26.576;2022-09-21T09:33:00;0.28;;;0.13;;
37823;SDS011;23667;43.246;26.576;2022-09-21T09:35:29;4.13;;;0.40;;
37823;SDS011;23667;43.246;26.576;2022-09-21T09:38:08;1.27;;;0.20;;
37823;SDS011;23667;43.246;26.576;2022-09-21T09:40:42;2.67;;;0.55;;
37823;SDS011;23667;43.246;26.576;2022-09-21T09:48:48;3.47;;;0.20;;
37823;SDS011;23667;43.246;26.576;2022-09-21T09:51:19;0.55;;;0.20;;
37823;SDS011;23667;43.246;26.576;2022-09-21T09:53:44;2.25;;;0.20;;
37823;SDS011;23667;43.246;26.576;2022-09-21T09:56:11;2.28;;;0.10;;
37823;SDS011;23667;43.246;26.576;2022-09-21T09:59:00;2.58;;;0.20;;
37823;SDS011;23667;43.246;26.576;2022-09-21T10:04:09;0.52;;;0.10;;
37823;SDS011;23667;43.246;26.576;2022-09-21T10:06:36;0.60;;;0.30;;
37823;SDS011;23667;43.246;26.576;2022-09-21T10:09:24;1.20;;;0.20;;
37823;SDS011;23667;43.246;26.576;2022-09-21T10:11:51;0.52;;;0.30;;
37823;SDS011;23667;43.246;26.576;2022-09-21T10:14:23;3.88;;;0.52;;
37823;SDS011;23667;43.246;26.576;2022-09-21T10:16:49;1.20;;;0.55;;
37823;SDS011;23667;43.246;26.576;2022-09-21T10:19:18;2.00;;;0.30;;
37823;SDS011;23667;43.246;26.576;2022-09-21T10:21:47;1.02;;;0.13;;
37823;SDS011;23667;43.246;26.576;2022-09-21T10:24:26;1.70;;;0.40;;
37823;SDS011;23667;43.246;26.576;2022-09-21T10:26:55;0.98;;;0.20;;
37823;SDS011;23667;43.246;26.576;2022-09-21T10:32:03;2.95;;;0.50;;
37823;SDS011;23667;43.246;26.576;2022-09-21T10:37:35;0.55;;;0.15;;
37823;SDS011;23667;43.246;26.576;2022-09-21T10:40:14;2.42;;;0.35;;
37823;SDS011;23667;43.246;26.576;2022-09-21T10:42:49;5.95;;;0.57;;
37823;SDS011;23667;43.246;26.576;2022-09-21T10:45:19;1.70;;;0.20;;
37823;SDS011;23667;43.246;26.576;2022-09-21T10:50:28;0.98;;;0.30;;
37823;SDS011;23667;43.246;26.576;2022-09-21T10:53:00;0.80;;;0.20;;
37823;SDS011;23667;43.246;26.576;2022-09-21T10:55:39;5.20;;;0.13;;
37823;SDS011;23667;43.246;26.576;2022-09-21T10:58:10;2.53;;;0.20;;
37823;SDS011;23667;43.246;26.576;2022-09-21T11:00:41;0.38;;;0.10;;
37823;SDS011;23667;43.246;26.576;2022-09-21T11:05:54;3.50;;;0.28;;
37823;SDS011;23667;43.246;26.576;2022-09-21T11:08:27;0.82;;;0.30;;
37823;SDS011;23667;43.246;26.576;2022-09-21T11:16:54;2.47;;;0.28;;
37823;SDS011;23667;43.246;26.576;2022-09-21T11:19:28;0.52;;;0.20;;
37823;SDS011;23667;43.246;26.576;2022-09-21T11:22:17;1.85;;;0.35;;
37823;SDS011;23667;43.246;26.576;2022-09-21T11:25:00;1.02;;;0.20;;
37823;SDS011;23667;43.246;26.576;2022-09-21T11:27:32;2.28;;;0.20;;
37823;SDS011;23667;43.246;26.576;2022-09-21T11:43:18;0.70;;;0.13;;
37823;SDS011;23667;43.246;26.576;2022-09-21T11:45:54;1.45;;;0.20;;
37823;SDS011;23667;43.246;26.576;2022-09-21T11:58:50;2.00;;;0.10;;
37823;SDS011;23667;43.246;26.576;2022-09-21T12:04:30;3.22;;;0.20;;
37823;SDS011;23667;43.246;26.576;2022-09-21T12:15:15;2.33;;;0.20;;
37823;SDS011;23667;43.246;26.576;2022-09-21T12:20:41;3.00;;;0.15;;
37823;SDS011;23667;43.246;26.576;2022-09-21T12:23:19;1.92;;;0.40;;
37823;SDS011;23667;43.246;26.576;2022-09-21T12:25:51;6.40;;;0.20;;
37823;SDS011;23667;43.246;26.576;2022-09-21T12:28:31;0.40;;;0.10;;
37823;SDS011;23667;43.246;26.576;2022-09-21T12:31:02;1.90;;;0.40;;
37823;SDS011;23667;43.246;26.576;2022-09-21T12:33:33;3.28;;;0.30;;
37823;SDS011;23667;43.246;26.576;2022-09-21T12:39:16;3.13;;;0.30;;
37823;SDS011;23667;43.246;26.576;2022-09-21T12:41:52;5.53;;;1.80;;
37823;SDS011;23667;43.246;26.576;2022-09-21T12:47:03;3.00;;;0.40;;
37823;SDS011;23667;43.246;26.576;2022-09-21T12:49:35;1.90;;;0.40;;
37823;SDS011;23667;43.246;26.576;2022-09-21T12:52:07;1.83;;;0.32;;
37823;SDS011;23667;43.246;26.576;2022-09-21T12:54:56;66.82;;;5.55;;
37823;SDS011;23667;43.246;26.576;2022-09-21T13:00:18;1.13;;;0.28;;
37823;SDS011;23667;43.246;26.576;2022-09-21T13:02:51;0.90;;;0.30;;
37823;SDS011;23667;43.246;26.576;2022-09-21T13:05:35;0.98;;;0.28;;
37823;SDS011;23667;43.246;26.576;2022-09-21T13:08:11;2.15;;;0.30;;
37823;SDS011;23667;43.246;26.576;2022-09-21T13:10:47;0.63;;;0.20;;
37823;SDS011;23667;43.246;26.576;2022-09-21T13:13:24;4.35;;;0.40;;
37823;SDS011;23667;43.246;26.576;2022-09-21T13:15:53;4.53;;;0.30;;
37823;SDS011;23667;43.246;26.576;2022-09-21T13:18:33;2.35;;;0.30;;
37823;SDS011;23667;43.246;26.576;2022-09-21T13:21:13;1.20;;;0.30;;
37823;SDS011;23667;43.246;26.576;2022-09-21T13:23:40;1.00;;;0.30;;
37823;SDS011;23667;43.246;26.576;2022-09-21T13:26:07;2.58;;;0.30;;
37823;SDS011;23667;43.246;26.576;2022-09-21T13:29:23;3.28;;;0.95;;
37823;SDS011;23667;43.246;26.576;2022-09-21T13:34:37;5.40;;;0.35;;
37823;SDS011;23667;43.246;26.576;2022-09-21T13:47:40;4.07;;;0.30;;
37823;SDS011;23667;43.246;26.576;2022-09-21T13:50:27;1.25;;;0.20;;
37823;SDS011;23667;43.246;26.576;2022-09-21T13:52:58;0.80;;;0.35;;
37823;SDS011;23667;43.246;26.576;2022-09-21T13:55:30;0.73;;;0.10;;
37823;SDS011;23667;43.246;26.576;2022-09-21T13:58:05;2.75;;;0.20;;
37823;SDS011;23667;43.246;26.576;2022-09-21T14:00:57;1.15;;;0.30;;
37823;SDS011;23667;43.246;26.576;2022-09-21T14:03:39;3.13;;;0.38;;
37823;SDS011;23667;43.246;26.576;2022-09-21T14:06:11;0.98;;;0.30;;
37823;SDS011;23667;43.246;26.576;2022-09-21T14:24:46;5.50;;;1.25;;
37823;SDS011;23667;43.246;26.576;2022-09-21T14:30:20;0.77;;;0.30;;
37823;SDS011;23667;43.246;26.576;2022-09-21T14:32:59;1.23;;;0.30;;
37823;SDS011;23667;43.246;26.576;2022-09-21T14:35:42;3.45;;;0.40;;
37823;SDS011;23667;43.246;26.576;2022-09-21T14:38:28;1.15;;;0.30;;
37823;SDS011;23667;43.246;26.576;2022-09-21T14:41:00;1.05;;;0.28;;
37823;SDS011;23667;43.246;26.576;2022-09-21T14:43:34;1.08;;;0.22;;
37823;SDS011;23667;43.246;26.576;2022-09-21T14:48:56;2.78;;;0.40;;
37823;SDS011;23667;43.246;26.576;2022-09-21T14:51:43;1.30;;;0.30;;
37823;SDS011;23667;43.246;26.576;2022-09-21T15:02:38;4.82;;;0.40;;
37823;SDS011;23667;43.246;26.576;2022-09-21T15:05:14;3.97;;;0.50;;
37823;SDS011;23667;43.246;26.576;2022-09-21T15:16:31;2.58;;;0.30;;
37823;SDS011;23667;43.246;26.576;2022-09-21T15:24:35;0.90;;;0.20;;
37823;SDS011;23667;43.246;26.576;2022-09-21T15:27:01;0.82;;;0.20;;
37823;SDS011;23667;43.246;26.576;2022-09-21T15:29:31;0.80;;;0.10;;
37823;SDS011;23667;43.246;26.576;2022-09-21T15:31:58;0.73;;;0.20;;
37823;SDS011;23667;43.246;26.576;2022-09-21T15:34:24;4.10;;;0.20;;
37823;SDS011;23667;43.246;26.576;2022-09-21T15:36:50;1.48;;;0.50;;
37823;SDS011;23667;43.246;26.576;2022-09-21T15:39:34;2.55;;;0.45;;
37823;SDS011;23667;43.246;26.576;2022-09-21T15:44:32;4.63;;;0.80;;
37823;SDS011;23667;43.246;26.576;2022-09-21T15:46:58;4.95;;;0.90;;
37823;SDS011;23667;43.246;26.576;2022-09-21T15:49:27;1.35;;;0.50;;
37823;SDS011;23667;43.246;26.576;2022-09-21T15:55:19;5.40;;;0.98;;
37823;SDS011;23667;43.246;26.576;2022-09-21T15:57:46;5.28;;;2.47;;
37823;SDS011;23667;43.246;26.576;2022-09-21T16:02:53;5.78;;;1.90;;
37823;SDS011;23667;43.246;26.576;2022-09-21T16:05:20;2.45;;;1.00;;
37823;SDS011;23667;43.246;26.576;2022-09-21T16:07:47;3.28;;;0.90;;
37823;SDS011;23667;43.246;26.576;2022-09-21T16:13:03;2.35;;;0.80;;
37823;SDS011;23667;43.246;26.576;2022-09-21T16:15:59;3.33;;;0.85;;
37823;SDS011;23667;43.246;26.576;2022-09-21T16:18:38;6.75;;;1.10;;
37823;SDS011;23667;43.246;26.576;2022-09-21T16:23:57;3.75;;;1.17;;
37823;SDS011;23667;43.246;26.576;2022-09-21T16:26:35;5.43;;;0.88;;
37823;SDS011;23667;43.246;26.576;2022-09-21T16:29:15;3.92;;;1.02;;
37823;SDS011;23667;43.246;26.576;2022-09-21T16:31:48;8.07;;;1.17;;
37823;SDS011;23667;43.246;26.576;2022-09-21T16:34:30;2.75;;;0.80;;
37823;SDS011;23667;43.246;26.576;2022-09-21T16:37:01;3.28;;;1.27;;
37823;SDS011;23667;43.246;26.576;2022-09-21T16:39:41;3.08;;;0.85;;
37823;SDS011;23667;43.246;26.576;2022-09-21T16:42:07;5.18;;;0.90;;
37823;SDS011;23667;43.246;26.576;2022-09-21T16:44:34;3.45;;;1.98;;
37823;SDS011;23667;43.246;26.576;2022-09-21T16:47:10;8.85;;;1.98;;
37823;SDS011;23667;43.246;26.576;2022-09-21T16:49:42;6.90;;;2.60;;
37823;SDS011;23667;43.246;26.576;2022-09-21T16:52:08;9.50;;;2.10;;
37823;SDS011;23667;43.246;26.576;2022-09-21T16:54:33;6.57;;;1.90;;
37823;SDS011;23667;43.246;26.576;2022-09-21T16:57:01;6.97;;;1.98;;
37823;SDS011;23667;43.246;26.576;2022-09-21T16:59:29;5.88;;;2.63;;
37823;SDS011;23667;43.246;26.576;2022-09-21T17:01:57;4.88;;;1.77;;
37823;SDS011;23667;43.246;26.576;2022-09-21T17:04:28;3.33;;;1.17;;
37823;SDS011;23667;43.246;26.576;2022-09-21T17:06:55;5.45;;;1.60;;
37823;SDS011;23667;43.246;26.576;2022-09-21T17:09:40;5.65;;;1.70;;
37823;SDS011;23667;43.246;26.576;2022-09-21T17:12:12;4.45;;;0.90;;
37823;SDS011;23667;43.246;26.576;2022-09-21T17:14:39;5.72;;;1.17;;
37823;SDS011;23667;43.246;26.576;2022-09-21T17:19:43;10.15;;;1.73;;
37823;SDS011;23667;43.246;26.576;2022-09-21T17:22:10;21.75;;;2.75;;
37823;SDS011;23667;43.246;26.576;2022-09-21T17:24:44;4.57;;;1.42;;
37823;SDS011;23667;43.246;26.576;2022-09-21T17:27:11;4.35;;;1.25;;
37823;SDS011;23667;43.246;26.576;2022-09-21T17:29:37;6.20;;;1.40;;
37823;SDS011;23667;43.246;26.576;2022-09-21T17:32:11;6.20;;;1.65;;
37823;SDS011;23667;43.246;26.576;2022-09-21T17:34:38;6.47;;;2.35;;
37823;SDS011;23667;43.246;26.576;2022-09-21T17:37:05;11.63;;;2.05;;
37823;SDS011;23667;43.246;26.576;2022-09-21T17:39:31;9.43;;;2.65;;
37823;SDS011;23667;43.246;26.576;2022-09-21T17:49:48;4.25;;;1.35;;
37823;SDS011;23667;43.246;26.576;2022-09-21T17:52:16;7.85;;;1.33;;
37823;SDS011;23667;43.246;26.576;2022-09-21T17:55:01;9.18;;;1.80;;
37823;SDS011;23667;43.246;26.576;2022-09-21T17:57:37;11.23;;;2.15;;
37823;SDS011;23667;43.246;26.576;2022-09-21T18:02:42;4.97;;;1.70;;
37823;SDS011;23667;43.246;26.576;2022-09-21T18:05:17;5.20;;;1.73;;
37823;SDS011;23667;43.246;26.576;2022-09-21T18:07:43;6.35;;;1.98;;
37823;SDS011;23667;43.246;26.576;2022-09-21T18:10:10;4.22;;;1.52;;
37823;SDS011;23667;43.246;26.576;2022-09-21T18:18:16;4.13;;;1.60;;
37823;SDS011;23667;43.246;26.576;2022-09-21T18:25:50;6.43;;;1.65;;
37823;SDS011;23667;43.246;26.576;2022-09-21T18:28:23;2.65;;;1.40;;
37823;SDS011;23667;43.246;26.576;2022-09-21T18:45:41;6.03;;;2.60;;
37823;SDS011;23667;43.246;26.576;2022-09-21T18:50:58;3.15;;;2.00;;
37823;SDS011;23667;43.246;26.576;2022-09-21T18:53:54;7.93;;;1.83;;
37823;SDS011;23667;43.246;26.576;2022-09-21T18:56:21;6.82;;;1.60;;
37823;SDS011;23667;43.246;26.576;2022-09-21T18:58:53;2.85;;;1.10;;
37823;SDS011;23667;43.246;26.576;2022-09-21T19:01:22;3.78;;;1.50;;
37823;SDS011;23667;43.246;26.576;2022-09-21T19:03:48;6.80;;;1.80;;
37823;SDS011;23667;43.246;26.576;2022-09-21T19:12:09;8.68;;;3.22;;
37823;SDS011;23667;43.246;26.576;2022-09-21T19:17:28;9.43;;;2.75;;
37823;SDS011;23667;43.246;26.576;2022-09-21T19:30:24;6.03;;;2.40;;